Leroy, Michigan
Current Conditions -  °F | °C
As of 7:15 AM on Friday 21 Nov 2014 (Local Time) from KCAD Reporting Station
Light Snow Light Snow  
Wind Chill:   Ceiling: 3400
Heat Index: 10°   Visibility: 5mi
Dew Point:   Wind: 5mph
Humidity: 90%   Direction: 230°SW
Pressure: 30.27"   Gusts: NA
Location:  44.03°N, 85.44°W
Report Text: KCAD 211215Z AUTO 23004KT 5SM -SN OVC034 M12/M13 A3027 RMK AO2 T11211135
Loading
Personal Weather Stations






























Interactive Weather Map New forecast layout! Learn more

10-Day Weather Forecast

Advertisements
Track Severe Weather on mobile